sensor_id;sensor_type;location;lat;lon;timestamp;pressure;altitude;pressure_sealevel;temperature;humidity
21504;BME280;10913;51.992;9.228;2022-09-09T02:29:21;99635.53;;;14.97;100.00
21504;BME280;10913;51.992;9.228;2022-09-09T02:31:49;99633.72;;;14.98;100.00
21504;BME280;10913;51.992;9.228;2022-09-09T02:34:17;99632.91;;;14.96;100.00
21504;BME280;10913;51.992;9.228;2022-09-09T02:36:45;99626.72;;;14.95;100.00
21504;BME280;10913;51.992;9.228;2022-09-09T02:39:12;99631.19;;;14.95;100.00
21504;BME280;10913;51.992;9.228;2022-09-09T02:41:40;99631.19;;;14.95;100.00
21504;BME280;10913;51.992;9.228;2022-09-09T02:44:14;99629.44;;;14.94;100.00
21504;BME280;10913;51.992;9.228;2022-09-09T02:52:20;99629.75;;;14.85;100.00
21504;BME280;10913;51.992;9.228;2022-09-09T02:55:05;99634.25;;;14.82;100.00
21504;BME280;10913;51.992;9.228;2022-09-09T02:57:33;99634.25;;;14.82;100.00
21504;BME280;10913;51.992;9.228;2022-09-09T03:00:00;99631.59;;;14.82;100.00
21504;BME280;10913;51.992;9.228;2022-09-09T03:02:26;99636.91;;;14.82;100.00
21504;BME280;10913;51.992;9.228;2022-09-09T03:04:52;99637.78;;;14.83;100.00
21504;BME280;10913;51.992;9.228;2022-09-09T03:07:18;99644.84;;;14.84;100.00
21504;BME280;10913;51.992;9.228;2022-09-09T03:09:44;99646.56;;;14.85;100.00
21504;BME280;10913;51.992;9.228;2022-09-09T03:12:10;99650.06;;;14.87;100.00
21504;BME280;10913;51.992;9.228;2022-09-09T03:14:36;99640.28;;;14.88;100.00
21504;BME280;10913;51.992;9.228;2022-09-09T03:17:03;99637.63;;;14.88;100.00
21504;BME280;10913;51.992;9.228;2022-09-09T03:19:29;99636.69;;;14.89;100.00
21504;BME280;10913;51.992;9.228;2022-09-09T03:21:55;99643.72;;;14.91;100.00
21504;BME280;10913;51.992;9.228;2022-09-09T03:24:20;99643.66;;;14.93;100.00
21504;BME280;10913;51.992;9.228;2022-09-09T03:26:46;99640.19;;;14.91;100.00
21504;BME280;10913;51.992;9.228;2022-09-09T03:29:12;99638.38;;;14.91;100.00
21504;BME280;10913;51.992;9.228;2022-09-09T03:31:39;99647.19;;;14.93;100.00
21504;BME280;10913;51.992;9.228;2022-09-09T03:34:05;99640.03;;;14.95;100.00
21504;BME280;10913;51.992;9.228;2022-09-09T03:36:31;99644.47;;;14.95;100.00
21504;BME280;10913;51.992;9.228;2022-09-09T03:38:56;99648.88;;;14.96;100.00
21504;BME280;10913;51.992;9.228;2022-09-09T03:41:23;99645.28;;;14.97;100.00
21504;BME280;10913;51.992;9.228;2022-09-09T03:43:50;99643.56;;;14.96;100.00
21504;BME280;10913;51.992;9.228;2022-09-09T03:46:16;99640.91;;;14.96;100.00
21504;BME280;10913;51.992;9.228;2022-09-09T03:48:42;99642.59;;;14.98;100.00
21504;BME280;10913;51.992;9.228;2022-09-09T03:51:07;99635.38;;;15.00;100.00
21504;BME280;10913;51.992;9.228;2022-09-09T03:53:32;99634.41;;;15.03;100.00
21504;BME280;10913;51.992;9.228;2022-09-09T03:55:58;99635.22;;;15.05;100.00
21504;BME280;10913;51.992;9.228;2022-09-09T03:58:25;99631.66;;;15.06;100.00
21504;BME280;10913;51.992;9.228;2022-09-09T04:00:56;99640.44;;;15.08;100.00
21504;BME280;10913;51.992;9.228;2022-09-09T04:03:23;99630.72;;;15.07;100.00
21504;BME280;10913;51.992;9.228;2022-09-09T04:05:51;99626.28;;;15.07;100.00
21504;BME280;10913;51.992;9.228;2022-09-09T04:08:17;99627.16;;;15.08;100.00
21504;BME280;10913;51.992;9.228;2022-09-09T04:10:45;99623.56;;;15.09;100.00
21504;BME280;10913;51.992;9.228;2022-09-09T04:13:12;99623.56;;;15.09;100.00
21504;BME280;10913;51.992;9.228;2022-09-09T04:15:39;99624.38;;;15.11;100.00
21504;BME280;10913;51.992;9.228;2022-09-09T04:18:04;99624.34;;;15.12;100.00
21504;BME280;10913;51.992;9.228;2022-09-09T04:20:31;99618.03;;;15.15;100.00
21504;BME280;10913;51.992;9.228;2022-09-09T04:22:56;99609.13;;;15.16;100.00
21504;BME280;10913;51.992;9.228;2022-09-09T04:25:21;99610.81;;;15.19;100.00
21504;BME280;10913;51.992;9.228;2022-09-09T04:27:47;99609.84;;;15.20;100.00
21504;BME280;10913;51.992;9.228;2022-09-09T04:30:12;99616.06;;;15.20;100.00
21504;BME280;10913;51.992;9.228;2022-09-09T04:32:38;99618.66;;;15.22;100.00
21504;BME280;10913;51.992;9.228;2022-09-09T04:35:03;99621.38;;;15.20;100.00
21504;BME280;10913;51.992;9.228;2022-09-09T04:37:29;99623.13;;;15.21;100.00
21504;BME280;10913;51.992;9.228;2022-09-09T04:39:54;99631.97;;;15.22;100.00
21504;BME280;10913;51.992;9.228;2022-09-09T04:42:19;99630.16;;;15.22;100.00
21504;BME280;10913;51.992;9.228;2022-09-09T04:44:45;99643.41;;;15.24;100.00
21504;BME280;10913;51.992;9.228;2022-09-09T04:47:10;99644.34;;;15.23;100.00
21504;BME280;10913;51.992;9.228;2022-09-09T04:49:36;99648.84;;;15.21;100.00
21504;BME280;10913;51.992;9.228;2022-09-09T04:52:02;99651.50;;;15.21;100.00
21504;BME280;10913;51.992;9.228;2022-09-09T04:54:28;99655.91;;;15.22;100.00
21504;BME280;10913;51.992;9.228;2022-09-09T04:56:53;99653.31;;;15.20;100.00
21504;BME280;10913;51.992;9.228;2022-09-09T04:59:20;99651.56;;;15.19;100.00
21504;BME280;10913;51.992;9.228;2022-09-09T05:01:45;99649.72;;;15.21;100.00
21504;BME280;10913;51.992;9.228;2022-09-09T05:04:13;99653.25;;;15.22;100.00
21504;BME280;10913;51.992;9.228;2022-09-09T05:06:41;99659.44;;;15.22;100.00
21504;BME280;10913;51.992;9.228;2022-09-09T05:09:08;99658.53;;;15.23;100.00
21504;BME280;10913;51.992;9.228;2022-09-09T05:11:34;99659.34;;;15.25;100.00
21504;BME280;10913;51.992;9.228;2022-09-09T05:14:02;99661.91;;;15.28;100.00
21504;BME280;10913;51.992;9.228;2022-09-09T05:16:28;99663.59;;;15.31;100.00
21504;BME280;10913;51.992;9.228;2022-09-09T05:18:53;99669.66;;;15.34;100.00
21504;BME280;10913;51.992;9.228;2022-09-09T05:21:22;99663.31;;;15.38;100.00
21504;BME280;10913;51.992;9.228;2022-09-09T05:23:48;99660.50;;;15.41;100.00
21504;BME280;10913;51.992;9.228;2022-09-09T05:26:16;99662.19;;;15.44;100.00
21504;BME280;10913;51.992;9.228;2022-09-09T05:28:42;99655.91;;;15.46;100.00
21504;BME280;10913;51.992;9.228;2022-09-09T05:31:09;99653.13;;;15.49;100.00
21504;BME280;10913;51.992;9.228;2022-09-09T05:33:38;99660.13;;;15.52;100.00
21504;BME280;10913;51.992;9.228;2022-09-09T05:36:08;99661.78;;;15.56;100.00
21504;BME280;10913;51.992;9.228;2022-09-09T05:38:34;99659.00;;;15.59;100.00
21504;BME280;10913;51.992;9.228;2022-09-09T05:41:02;99665.06;;;15.63;100.00
21504;BME280;10913;51.992;9.228;2022-09-09T05:43:28;99665.88;;;15.65;100.00
21504;BME280;10913;51.992;9.228;2022-09-09T05:48:31;99671.00;;;15.71;100.00
21504;BME280;10913;51.992;9.228;2022-09-09T05:50:58;99668.16;;;15.75;100.00
21504;BME280;10913;51.992;9.228;2022-09-09T05:53:23;99662.63;;;15.80;100.00
21504;BME280;10913;51.992;9.228;2022-09-09T05:55:48;99655.41;;;15.83;100.00
21504;BME280;10913;51.992;9.228;2022-09-09T05:58:14;99667.69;;;15.88;100.00
21504;BME280;10913;51.992;9.228;2022-09-09T06:00:42;99668.31;;;15.94;100.00
21504;BME280;10913;51.992;9.228;2022-09-09T06:03:11;99668.06;;;16.00;100.00
21504;BME280;10913;51.992;9.228;2022-09-09T06:05:36;99676.75;;;16.05;100.00
21504;BME280;10913;51.992;9.228;2022-09-09T06:08:02;99663.31;;;16.08;100.00
21504;BME280;10913;51.992;9.228;2022-09-09T06:10:28;99665.88;;;16.11;100.00
21504;BME280;10913;51.992;9.228;2022-09-09T06:12:53;99672.75;;;16.17;100.00
21504;BME280;10913;51.992;9.228;2022-09-09T06:15:19;99668.97;;;16.23;100.00
21504;BME280;10913;51.992;9.228;2022-09-09T06:17:44;99676.72;;;16.29;100.00
21504;BME280;10913;51.992;9.228;2022-09-09T06:20:10;99676.22;;;16.41;100.00
21504;BME280;10913;51.992;9.228;2022-09-09T06:22:39;99671.22;;;16.55;100.00
21504;BME280;10913;51.992;9.228;2022-09-09T06:25:05;99678.59;;;16.70;100.00
21504;BME280;10913;51.992;9.228;2022-09-09T06:27:31;99665.59;;;16.83;100.00
21504;BME280;10913;51.992;9.228;2022-09-09T06:29:56;99667.84;;;16.94;100.00
21504;BME280;10913;51.992;9.228;2022-09-09T06:32:21;99669.16;;;17.04;100.00
21504;BME280;10913;51.992;9.228;2022-09-09T06:34:47;99664.44;;;17.10;100.00
21504;BME280;10913;51.992;9.228;2022-09-09T06:37:14;99662.31;;;17.18;100.00
21504;BME280;10913;51.992;9.228;2022-09-09T06:39:39;99653.94;;;17.26;100.00
21504;BME280;10913;51.992;9.228;2022-09-09T06:42:05;99650.75;;;17.38;100.00
21504;BME280;10913;51.992;9.228;2022-09-09T06:44:33;99655.72;;;17.46;100.00
21504;BME280;10913;51.992;9.228;2022-09-09T06:46:59;99651.41;;;17.62;100.00
21504;BME280;10913;51.992;9.228;2022-09-09T06:49:24;99653.94;;;17.85;100.00
21504;BME280;10913;51.992;9.228;2022-09-09T06:51:49;99651.53;;;18.36;100.00
21504;BME280;10913;51.992;9.228;2022-09-09T06:54:15;99647.13;;;18.88;98.25
21504;BME280;10913;51.992;9.228;2022-09-09T06:56:41;99650.03;;;19.18;96.73
21504;BME280;10913;51.992;9.228;2022-09-09T06:59:08;99653.81;;;19.14;95.91
21504;BME280;10913;51.992;9.228;2022-09-09T07:01:36;99657.75;;;19.07;96.57
21504;BME280;10913;51.992;9.228;2022-09-09T07:04:03;99653.75;;;18.98;97.68
21504;BME280;10913;51.992;9.228;2022-09-09T07:06:34;99655.22;;;18.86;97.35
21504;BME280;10913;51.992;9.228;2022-09-09T07:09:02;99657.91;;;18.69;97.77
21504;BME280;10913;51.992;9.228;2022-09-09T07:11:31;99656.53;;;18.61;99.49
21504;BME280;10913;51.992;9.228;2022-09-09T07:13:57;99654.44;;;18.48;99.81
21504;BME280;10913;51.992;9.228;2022-09-09T07:16:24;99655.75;;;18.40;100.00
21504;BME280;10913;51.992;9.228;2022-09-09T07:18:51;99660.63;;;18.32;100.00
21504;BME280;10913;51.992;9.228;2022-09-09T07:21:17;99663.66;;;18.24;100.00
21504;BME280;10913;51.992;9.228;2022-09-09T07:23:43;99663.41;;;18.11;100.00
21504;BME280;10913;51.992;9.228;2022-09-09T07:26:14;99668.22;;;18.03;100.00
21504;BME280;10913;51.992;9.228;2022-09-09T07:28:39;99664.81;;;18.00;100.00
21504;BME280;10913;51.992;9.228;2022-09-09T07:31:07;99665.88;;;17.97;100.00
21504;BME280;10913;51.992;9.228;2022-09-09T07:33:34;99665.75;;;17.99;100.00
21504;BME280;10913;51.992;9.228;2022-09-09T07:36:07;99668.22;;;18.03;100.00
21504;BME280;10913;51.992;9.228;2022-09-09T07:38:41;99669.09;;;18.04;100.00
21504;BME280;10913;51.992;9.228;2022-09-09T07:41:10;99668.09;;;18.06;100.00
21504;BME280;10913;51.992;9.228;2022-09-09T07:43:41;99675.91;;;18.11;100.00
21504;BME280;10913;51.992;9.228;2022-09-09T07:46:07;99664.34;;;18.10;100.00
21504;BME280;10913;51.992;9.228;2022-09-09T07:48:33;99672.13;;;18.15;100.00
21504;BME280;10913;51.992;9.228;2022-09-09T07:51:12;99668.47;;;18.17;100.00
21504;BME280;10913;51.992;9.228;2022-09-09T07:53:42;99667.72;;;18.14;99.94
21504;BME280;10913;51.992;9.228;2022-09-09T07:56:10;99660.44;;;18.17;100.00
21504;BME280;10913;51.992;9.228;2022-09-09T07:58:40;99666.47;;;18.21;100.00
21504;BME280;10913;51.992;9.228;2022-09-09T08:01:08;99667.06;;;18.28;100.00
21504;BME280;10913;51.992;9.228;2022-09-09T08:03:33;99674.94;;;18.31;99.91
21504;BME280;10913;51.992;9.228;2022-09-09T08:06:04;99666.13;;;18.29;100.00
21504;BME280;10913;51.992;9.228;2022-09-09T08:08:29;99670.38;;;18.33;100.00
21504;BME280;10913;51.992;9.228;2022-09-09T08:11:11;99662.84;;;18.41;100.00
21504;BME280;10913;51.992;9.228;2022-09-09T08:13:38;99669.41;;;18.52;100.00
21504;BME280;10913;51.992;9.228;2022-09-09T08:16:12;99662.94;;;18.75;98.44
21504;BME280;10913;51.992;9.228;2022-09-09T08:18:38;99674.84;;;19.04;97.48
21504;BME280;10913;51.992;9.228;2022-09-09T08:21:12;99675.41;;;19.11;95.03
21504;BME280;10913;51.992;9.228;2022-09-09T08:23:39;99667.44;;;19.09;95.37
21504;BME280;10913;51.992;9.228;2022-09-09T08:26:14;99662.72;;;19.14;95.13
21504;BME280;10913;51.992;9.228;2022-09-09T08:28:40;99672.56;;;19.14;95.53
21504;BME280;10913;51.992;9.228;2022-09-09T08:31:14;99671.22;;;19.05;95.00
21504;BME280;10913;51.992;9.228;2022-09-09T08:33:41;99666.00;;;19.02;96.04
21504;BME280;10913;51.992;9.228;2022-09-09T08:36:09;99671.06;;;19.08;95.83
21504;BME280;10913;51.992;9.228;2022-09-09T08:38:35;99673.38;;;19.49;95.37
21504;BME280;10913;51.992;9.228;2022-09-09T08:43:45;99678.94;;;21.49;85.85
21504;BME280;10913;51.992;9.228;2022-09-09T08:47:04;99674.25;;;22.09;83.55
21504;BME280;10913;51.992;9.228;2022-09-09T08:51:41;99685.38;;;22.31;80.87
21504;BME280;10913;51.992;9.228;2022-09-09T08:54:08;99673.69;;;22.04;81.25
21504;BME280;10913;51.992;9.228;2022-09-09T08:56:35;99677.59;;;21.98;82.55
21504;BME280;10913;51.992;9.228;2022-09-09T08:59:02;99679.03;;;22.18;82.80
21504;BME280;10913;51.992;9.228;2022-09-09T09:07:16;99673.72;;;23.77;77.25
21504;BME280;10913;51.992;9.228;2022-09-09T09:10:29;99679.09;;;23.64;77.09
21504;BME280;10913;51.992;9.228;2022-09-09T09:12:50;99681.19;;;23.21;76.55
21504;BME280;10913;51.992;9.228;2022-09-09T09:15:23;99680.41;;;22.52;77.95
21504;BME280;10913;51.992;9.228;2022-09-09T09:17:50;99674.44;;;22.06;79.99
21504;BME280;10913;51.992;9.228;2022-09-09T09:20:19;99678.09;;;21.77;81.80
21504;BME280;10913;51.992;9.228;2022-09-09T09:22:49;99675.66;;;21.44;82.95
21504;BME280;10913;51.992;9.228;2022-09-09T09:25:23;99680.44;;;21.24;83.40
21504;BME280;10913;51.992;9.228;2022-09-09T09:27:58;99683.19;;;21.23;83.32
21504;BME280;10913;51.992;9.228;2022-09-09T09:30:36;99676.44;;;21.16;82.68
21504;BME280;10913;51.992;9.228;2022-09-09T09:35:39;99670.94;;;21.33;81.22
21504;BME280;10913;51.992;9.228;2022-09-09T09:38:35;99657.03;;;21.83;79.67
21504;BME280;10913;51.992;9.228;2022-09-09T09:41:00;99669.03;;;22.20;80.23
21504;BME280;10913;51.992;9.228;2022-09-09T09:45:51;99654.91;;;22.58;80.76
21504;BME280;10913;51.992;9.228;2022-09-09T09:48:17;99654.81;;;22.86;79.42
21504;BME280;10913;51.992;9.228;2022-09-09T09:50:52;99654.13;;;23.10;79.41
21504;BME280;10913;51.992;9.228;2022-09-09T09:53:27;99654.00;;;23.11;79.96
21504;BME280;10913;51.992;9.228;2022-09-09T09:56:30;99656.63;;;22.86;79.97
21504;BME280;10913;51.992;9.228;2022-09-09T09:58:51;99653.66;;;22.22;78.17
21504;BME280;10913;51.992;9.228;2022-09-09T10:01:25;99651.19;;;21.91;78.34
21504;BME280;10913;51.992;9.228;2022-09-09T10:03:55;99649.47;;;21.90;78.38
21504;BME280;10913;51.992;9.228;2022-09-09T10:08:57;99662.31;;;21.99;79.86
21504;BME280;10913;51.992;9.228;2022-09-09T10:16:37;99660.03;;;21.50;80.99
21504;BME280;10913;51.992;9.228;2022-09-09T10:19:10;99660.97;;;21.35;81.63
21504;BME280;10913;51.992;9.228;2022-09-09T10:30:06;99701.88;;;20.49;84.98
21504;BME280;10913;51.992;9.228;2022-09-09T10:41:09;99702.25;;;19.94;92.61
21504;BME280;10913;51.992;9.228;2022-09-09T10:48:45;99692.94;;;19.84;91.28
21504;BME280;10913;51.992;9.228;2022-09-09T10:54:11;99668.91;;;19.82;91.71
21504;BME280;10913;51.992;9.228;2022-09-09T10:56:41;99667.63;;;19.89;92.61
21504;BME280;10913;51.992;9.228;2022-09-09T10:59:19;99670.50;;;20.02;93.29
21504;BME280;10913;51.992;9.228;2022-09-09T11:01:53;99674.31;;;20.29;94.39
21504;BME280;10913;51.992;9.228;2022-09-09T11:04:37;99678.66;;;20.63;96.43
21504;BME280;10913;51.992;9.228;2022-09-09T11:07:10;99671.88;;;20.72;92.10
21504;BME280;10913;51.992;9.228;2022-09-09T11:09:50;99667.69;;;20.82;93.70
21504;BME280;10913;51.992;9.228;2022-09-09T11:12:20;99668.91;;;20.92;95.24
21504;BME280;10913;51.992;9.228;2022-09-09T11:15:08;99674.44;;;20.89;96.40
21504;BME280;10913;51.992;9.228;2022-09-09T11:17:45;99668.75;;;20.80;97.73
21504;BME280;10913;51.992;9.228;2022-09-09T11:20:13;99680.91;;;20.71;98.33
21504;BME280;10913;51.992;9.228;2022-09-09T11:23:03;99670.84;;;20.59;99.89
21504;BME280;10913;51.992;9.228;2022-09-09T11:25:43;99669.84;;;20.46;98.48
21504;BME280;10913;51.992;9.228;2022-09-09T11:39:47;99664.66;;;20.88;96.46
21504;BME280;10913;51.992;9.228;2022-09-09T11:42:19;99658.63;;;20.99;97.75
21504;BME280;10913;51.992;9.228;2022-09-09T11:44:45;99658.31;;;21.19;95.30
21504;BME280;10913;51.992;9.228;2022-09-09T11:47:26;99663.84;;;21.32;91.05
21504;BME280;10913;51.992;9.228;2022-09-09T11:49:55;99652.91;;;21.49;93.51
21504;BME280;10913;51.992;9.228;2022-09-09T11:54:50;99641.31;;;21.77;88.11
21504;BME280;10913;51.992;9.228;2022-09-09T11:57:42;99640.13;;;21.81;88.86
21504;BME280;10913;51.992;9.228;2022-09-09T12:02:59;99642.94;;;21.94;89.34
21504;BME280;10913;51.992;9.228;2022-09-09T12:05:37;99635.06;;;22.05;91.60
21504;BME280;10913;51.992;9.228;2022-09-09T12:08:04;99640.16;;;21.95;86.74
21504;BME280;10913;51.992;9.228;2022-09-09T12:10:41;99648.09;;;21.83;86.63
21504;BME280;10913;51.992;9.228;2022-09-09T12:13:17;99643.78;;;21.80;85.65
21504;BME280;10913;51.992;9.228;2022-09-09T12:15:50;99648.13;;;21.69;86.10
21504;BME280;10913;51.992;9.228;2022-09-09T12:18:25;99636.59;;;21.52;83.88
21504;BME280;10913;51.992;9.228;2022-09-09T12:23:40;99638.31;;;21.39;81.88
21504;BME280;10913;51.992;9.228;2022-09-09T12:33:46;99628.44;;;21.54;84.46
21504;BME280;10913;51.992;9.228;2022-09-09T12:36:18;99623.94;;;21.54;82.35
21504;BME280;10913;51.992;9.228;2022-09-09T12:38:45;99633.16;;;21.50;84.19
21504;BME280;10913;51.992;9.228;2022-09-09T12:41:21;99632.97;;;21.53;83.86
21504;BME280;10913;51.992;9.228;2022-09-09T12:43:47;99633.63;;;21.57;81.87
21504;BME280;10913;51.992;9.228;2022-09-09T12:46:35;99627.28;;;21.72;83.13
21504;BME280;10913;51.992;9.228;2022-09-09T12:49:02;99625.72;;;21.82;82.84
21504;BME280;10913;51.992;9.228;2022-09-09T12:51:29;99625.25;;;21.90;82.19
21504;BME280;10913;51.992;9.228;2022-09-09T12:53:56;99634.47;;;21.86;80.80
21504;BME280;10913;51.992;9.228;2022-09-09T12:56:24;99632.06;;;21.81;79.47
21504;BME280;10913;51.992;9.228;2022-09-09T12:58:55;99627.00;;;21.77;79.38
21504;BME280;10913;51.992;9.228;2022-09-09T13:01:26;99624.00;;;21.81;79.98
21504;BME280;10913;51.992;9.228;2022-09-09T13:03:53;99619.69;;;21.93;80.10
21504;BME280;10913;51.992;9.228;2022-09-09T13:06:22;99614.09;;;21.96;77.46
21504;BME280;10913;51.992;9.228;2022-09-09T13:08:50;99619.78;;;22.06;78.44
21504;BME280;10913;51.992;9.228;2022-09-09T13:11:26;99617.91;;;22.20;78.87
21504;BME280;10913;51.992;9.228;2022-09-09T13:13:55;99615.22;;;22.20;77.61
21504;BME280;10913;51.992;9.228;2022-09-09T13:16:31;99613.38;;;22.21;76.85
21504;BME280;10913;51.992;9.228;2022-09-09T13:18:58;99605.31;;;22.21;77.56
21504;BME280;10913;51.992;9.228;2022-09-09T13:21:32;99599.16;;;22.19;77.38
21504;BME280;10913;51.992;9.228;2022-09-09T13:23:58;99603.69;;;22.18;75.87
21504;BME280;10913;51.992;9.228;2022-09-09T13:26:28;99596.81;;;22.14;75.18
21504;BME280;10913;51.992;9.228;2022-09-09T13:28:55;99597.88;;;22.12;76.22
21504;BME280;10913;51.992;9.228;2022-09-09T13:31:35;99599.84;;;22.22;77.49
21504;BME280;10913;51.992;9.228;2022-09-09T13:34:13;99587.41;;;22.34;76.13
21504;BME280;10913;51.992;9.228;2022-09-09T13:36:39;99593.69;;;22.47;76.70
21504;BME280;10913;51.992;9.228;2022-09-09T13:39:16;99588.97;;;22.51;75.54
21504;BME280;10913;51.992;9.228;2022-09-09T13:41:43;99585.13;;;22.55;75.92
21504;BME280;10913;51.992;9.228;2022-09-09T13:44:28;99584.16;;;22.56;75.06
21504;BME280;10913;51.992;9.228;2022-09-09T13:47:20;99588.03;;;22.64;74.50
21504;BME280;10913;51.992;9.228;2022-09-09T13:49:47;99589.47;;;22.70;74.82
21504;BME280;10913;51.992;9.228;2022-09-09T13:52:14;99588.84;;;22.79;73.46
21504;BME280;10913;51.992;9.228;2022-09-09T13:54:42;99589.97;;;22.89;72.31
21504;BME280;10913;51.992;9.228;2022-09-09T13:57:34;99590.41;;;22.96;73.56
21504;BME280;10913;51.992;9.228;2022-09-09T14:00:00;99600.31;;;22.95;71.32
21504;BME280;10913;51.992;9.228;2022-09-09T14:02:26;99598.38;;;22.97;71.55
21504;BME280;10913;51.992;9.228;2022-09-09T14:04:51;99597.28;;;23.00;71.61
21504;BME280;10913;51.992;9.228;2022-09-09T14:07:20;99588.88;;;23.05;70.91
21504;BME280;10913;51.992;9.228;2022-09-09T14:09:46;99596.00;;;23.06;68.97
21504;BME280;10913;51.992;9.228;2022-09-09T14:12:15;99589.44;;;22.97;68.23
21504;BME280;10913;51.992;9.228;2022-09-09T14:14:41;99591.28;;;22.96;69.74
21504;BME280;10913;51.992;9.228;2022-09-09T14:17:08;99581.97;;;23.00;69.03
21504;BME280;10913;51.992;9.228;2022-09-09T14:19:33;99585.88;;;23.09;70.75
21504;BME280;10913;51.992;9.228;2022-09-09T14:21:59;99577.59;;;23.12;68.58
21504;BME280;10913;51.992;9.228;2022-09-09T14:24:24;99573.16;;;23.24;68.11
21504;BME280;10913;51.992;9.228;2022-09-09T14:26:50;99571.31;;;23.24;69.74
21504;BME280;10913;51.992;9.228;2022-09-09T14:29:16;99566.47;;;23.29;68.07
21504;BME280;10913;51.992;9.228;2022-09-09T14:31:41;99567.69;;;23.38;69.54
21504;BME280;10913;51.992;9.228;2022-09-09T14:34:06;99565.38;;;23.45;64.68
21504;BME280;10913;51.992;9.228;2022-09-09T14:36:32;99559.81;;;23.35;64.63
21504;BME280;10913;51.992;9.228;2022-09-09T14:38:58;99563.38;;;23.35;64.98
21504;BME280;10913;51.992;9.228;2022-09-09T14:41:24;99562.03;;;23.41;65.18
21504;BME280;10913;51.992;9.228;2022-09-09T14:43:50;99571.03;;;23.54;63.43
21504;BME280;10913;51.992;9.228;2022-09-09T14:46:19;99559.78;;;23.60;63.64
21504;BME280;10913;51.992;9.228;2022-09-09T14:48:45;99566.47;;;23.67;63.00
21504;BME280;10913;51.992;9.228;2022-09-09T14:51:23;99556.44;;;23.69;62.95
21504;BME280;10913;51.992;9.228;2022-09-09T14:53:51;99559.78;;;23.60;63.87
21504;BME280;10913;51.992;9.228;2022-09-09T14:56:19;99563.69;;;23.56;64.88
21504;BME280;10913;51.992;9.228;2022-09-09T14:58:47;99565.81;;;23.51;64.25
21504;BME280;10913;51.992;9.228;2022-09-09T15:01:15;99565.81;;;23.51;64.49
21504;BME280;10913;51.992;9.228;2022-09-09T15:03:42;99557.63;;;23.40;63.10
21504;BME280;10913;51.992;9.228;2022-09-09T15:06:12;99562.28;;;23.38;64.56
21504;BME280;10913;51.992;9.228;2022-09-09T15:08:41;99560.31;;;23.40;63.11
21504;BME280;10913;51.992;9.228;2022-09-09T15:11:07;99558.59;;;23.39;64.80
21504;BME280;10913;51.992;9.228;2022-09-09T15:13:36;99566.47;;;23.42;65.61
21504;BME280;10913;51.992;9.228;2022-09-09T15:16:05;99561.28;;;23.39;65.99
21504;BME280;10913;51.992;9.228;2022-09-09T15:18:32;99559.59;;;23.38;65.52
21504;BME280;10913;51.992;9.228;2022-09-09T15:20:58;99563.25;;;23.37;65.24
21504;BME280;10913;51.992;9.228;2022-09-09T15:23:25;99563.56;;;23.32;65.98
21504;BME280;10913;51.992;9.228;2022-09-09T15:25:54;99565.81;;;23.26;63.98
21504;BME280;10913;51.992;9.228;2022-09-09T15:28:21;99569.19;;;23.17;64.82
21504;BME280;10913;51.992;9.228;2022-09-09T15:30:50;99576.84;;;23.10;65.40
21504;BME280;10913;51.992;9.228;2022-09-09T15:33:16;99574.25;;;23.09;66.03
21504;BME280;10913;51.992;9.228;2022-09-09T15:35:42;99572.72;;;23.05;65.77
21504;BME280;10913;51.992;9.228;2022-09-09T15:38:07;99577.69;;;22.98;66.35
21504;BME280;10913;51.992;9.228;2022-09-09T15:40:33;99570.78;;;22.94;66.04
21504;BME280;10913;51.992;9.228;2022-09-09T15:42:58;99570.13;;;22.90;66.31
21504;BME280;10913;51.992;9.228;2022-09-09T15:45:24;99572.06;;;22.88;67.30
21504;BME280;10913;51.992;9.228;2022-09-09T15:47:49;99566.13;;;22.83;65.83
21504;BME280;10913;51.992;9.228;2022-09-09T15:50:15;99568.91;;;22.82;65.61
21504;BME280;10913;51.992;9.228;2022-09-09T15:52:40;99561.25;;;22.76;65.49
21504;BME280;10913;51.992;9.228;2022-09-09T15:55:06;99564.03;;;22.74;65.97
21504;BME280;10913;51.992;9.228;2022-09-09T15:57:33;99566.38;;;22.66;67.06
21504;BME280;10913;51.992;9.228;2022-09-09T15:59:59;99567.75;;;22.59;67.71
21504;BME280;10913;51.992;9.228;2022-09-09T16:02:25;99565.03;;;22.46;69.08
21504;BME280;10913;51.992;9.228;2022-09-09T16:04:50;99564.91;;;22.35;69.78
21504;BME280;10913;51.992;9.228;2022-09-09T16:07:16;99571.75;;;22.26;70.38
21504;BME280;10913;51.992;9.228;2022-09-09T16:09:41;99571.53;;;22.17;70.80
21504;BME280;10913;51.992;9.228;2022-09-09T16:12:08;99571.72;;;22.14;71.51
21504;BME280;10913;51.992;9.228;2022-09-09T16:14:38;99571.06;;;22.10;71.83
21504;BME280;10913;51.992;9.228;2022-09-09T16:17:05;99576.06;;;22.02;72.15
21504;BME280;10913;51.992;9.228;2022-09-09T16:19:32;99579.13;;;21.96;72.92
21504;BME280;10913;51.992;9.228;2022-09-09T16:21:59;99584.13;;;21.88;72.47
21504;BME280;10913;51.992;9.228;2022-09-09T16:24:25;99580.78;;;21.84;72.89
21504;BME280;10913;51.992;9.228;2022-09-09T16:26:52;99584.72;;;21.79;72.60
21504;BME280;10913;51.992;9.228;2022-09-09T16:29:20;99582.44;;;21.73;72.90
21504;BME280;10913;51.992;9.228;2022-09-09T16:31:47;99583.97;;;21.62;72.42
21504;BME280;10913;51.992;9.228;2022-09-09T16:34:14;99582.44;;;21.58;72.25
21504;BME280;10913;51.992;9.228;2022-09-09T16:36:41;99584.75;;;21.50;72.34
21504;BME280;10913;51.992;9.228;2022-09-09T16:39:15;99580.72;;;21.43;72.79
21504;BME280;10913;51.992;9.228;2022-09-09T16:41:42;99581.88;;;21.39;72.69
21504;BME280;10913;51.992;9.228;2022-09-09T16:44:10;99591.47;;;21.29;73.41
21504;BME280;10913;51.992;9.228;2022-09-09T16:46:38;99599.81;;;21.24;74.09
21504;BME280;10913;51.992;9.228;2022-09-09T16:49:06;99602.97;;;21.17;74.95
21504;BME280;10913;51.992;9.228;2022-09-09T16:51:35;99594.31;;;21.12;75.79
21504;BME280;10913;51.992;9.228;2022-09-09T16:54:02;99593.63;;;21.08;76.38
21504;BME280;10913;51.992;9.228;2022-09-09T16:56:30;99598.69;;;20.98;76.71